Terminal Aerodrome Forecast
Issued by NWS

Current Version | Previous Version | Text Only | Print | Product List | Glossary On
Versions: 1 2 3 4 5 6 7 8 9 10 11 12 13 14 15 16 17
000
FTUS46 KLOX 210608 AAA
TAFSBA
TAF AMD
KSBA 210608Z 2106/2206 34011KT P6SM SKC WS010/35035KT
     FM211000 35005KT P6SM SKC
     FM211800 17006KT P6SM SKC
     FM212100 24008KT P6SM SKC
     FM220300 VRB05KT P6SM SKC=

USA.gov is the U.S. government's official web portal to all federal, state and local government web resources and services.